sensor_id;sensor_type;location;lat;lon;timestamp;pressure;altitude;pressure_sealevel;temperature;humidity
9822;BME280;4950;46.042;14.472;2023-01-15T00:01:18;98216.91;;;2.97;96.24
9822;BME280;4950;46.042;14.472;2023-01-15T00:03:46;98207.22;;;3.01;96.69
9822;BME280;4950;46.042;14.472;2023-01-15T00:06:13;98205.97;;;2.95;95.71
9822;BME280;4950;46.042;14.472;2023-01-15T00:08:40;98202.44;;;2.85;95.62
9822;BME280;4950;46.042;14.472;2023-01-15T00:11:07;98203.75;;;2.90;95.81
9822;BME280;4950;46.042;14.472;2023-01-15T00:13:33;98204.44;;;2.92;95.98
9822;BME280;4950;46.042;14.472;2023-01-15T00:16:04;98203.63;;;2.92;95.58
9822;BME280;4950;46.042;14.472;2023-01-15T00:18:31;98192.31;;;2.94;95.72
9822;BME280;4950;46.042;14.472;2023-01-15T00:21:00;98189.16;;;2.91;95.46
9822;BME280;4950;46.042;14.472;2023-01-15T00:23:27;98189.31;;;2.89;95.30
9822;BME280;4950;46.042;14.472;2023-01-15T00:26:12;98177.50;;;2.87;95.28
9822;BME280;4950;46.042;14.472;2023-01-15T00:28:57;98167.97;;;2.89;95.28
9822;BME280;4950;46.042;14.472;2023-01-15T00:31:24;98174.03;;;2.88;95.21
9822;BME280;4950;46.042;14.472;2023-01-15T00:33:50;98169.00;;;2.86;95.09
9822;BME280;4950;46.042;14.472;2023-01-15T00:36:18;98175.44;;;2.81;95.18
9822;BME280;4950;46.042;14.472;2023-01-15T00:38:45;98164.59;;;2.77;95.04
9822;BME280;4950;46.042;14.472;2023-01-15T00:41:12;98162.16;;;2.75;95.40
9822;BME280;4950;46.042;14.472;2023-01-15T00:43:38;98158.66;;;2.76;95.45
9822;BME280;4950;46.042;14.472;2023-01-15T00:46:05;98158.44;;;2.80;95.71
9822;BME280;4950;46.042;14.472;2023-01-15T00:48:33;98160.03;;;2.81;95.75
9822;BME280;4950;46.042;14.472;2023-01-15T00:50:59;98156.31;;;2.85;95.70
9822;BME280;4950;46.042;14.472;2023-01-15T00:53:27;98153.63;;;2.86;95.32
9822;BME280;4950;46.042;14.472;2023-01-15T00:55:54;98149.56;;;2.84;94.87
9822;BME280;4950;46.042;14.472;2023-01-15T00:58:21;98157.94;;;2.86;95.78
9822;BME280;4950;46.042;14.472;2023-01-15T01:00:52;98145.13;;;2.86;95.14
9822;BME280;4950;46.042;14.472;2023-01-15T01:03:18;98155.28;;;2.87;95.51
9822;BME280;4950;46.042;14.472;2023-01-15T01:05:45;98148.41;;;2.88;95.41
9822;BME280;4950;46.042;14.472;2023-01-15T01:08:11;98147.81;;;2.84;94.92
9822;BME280;4950;46.042;14.472;2023-01-15T01:10:39;98141.88;;;2.72;94.76
9822;BME280;4950;46.042;14.472;2023-01-15T01:13:06;98149.94;;;2.56;94.40
9822;BME280;4950;46.042;14.472;2023-01-15T01:15:34;98149.81;;;2.58;94.63
9822;BME280;4950;46.042;14.472;2023-01-15T01:18:02;98137.13;;;2.56;95.35
9822;BME280;4950;46.042;14.472;2023-01-15T01:20:30;98137.81;;;2.59;95.16
9822;BME280;4950;46.042;14.472;2023-01-15T01:22:56;98137.56;;;2.62;94.78
9822;BME280;4950;46.042;14.472;2023-01-15T01:25:23;98127.47;;;2.60;94.85
9822;BME280;4950;46.042;14.472;2023-01-15T01:27:51;98110.91;;;2.64;94.82
9822;BME280;4950;46.042;14.472;2023-01-15T01:30:18;98116.25;;;2.61;94.87
9822;BME280;4950;46.042;14.472;2023-01-15T01:32:44;98105.69;;;2.54;94.32
9822;BME280;4950;46.042;14.472;2023-01-15T01:35:11;98101.13;;;2.58;94.29
9822;BME280;4950;46.042;14.472;2023-01-15T01:37:38;98110.69;;;2.56;94.63
9822;BME280;4950;46.042;14.472;2023-01-15T01:40:05;98096.94;;;2.57;94.47
9822;BME280;4950;46.042;14.472;2023-01-15T01:42:31;98097.19;;;2.54;93.89
9822;BME280;4950;46.042;14.472;2023-01-15T01:45:19;98095.16;;;2.57;93.79
9822;BME280;4950;46.042;14.472;2023-01-15T01:47:49;98088.06;;;2.61;93.43
9822;BME280;4950;46.042;14.472;2023-01-15T01:50:17;98089.81;;;2.61;94.05
9822;BME280;4950;46.042;14.472;2023-01-15T01:52:46;98085.28;;;2.64;93.80
9822;BME280;4950;46.042;14.472;2023-01-15T01:55:17;98078.06;;;2.58;94.08
9822;BME280;4950;46.042;14.472;2023-01-15T01:57:46;98079.00;;;2.46;94.13
9822;BME280;4950;46.042;14.472;2023-01-15T02:00:13;98090.41;;;2.53;94.47
9822;BME280;4950;46.042;14.472;2023-01-15T02:02:43;98084.13;;;2.57;94.90
9822;BME280;4950;46.042;14.472;2023-01-15T02:05:13;98078.53;;;2.52;94.16
9822;BME280;4950;46.042;14.472;2023-01-15T02:07:41;98073.75;;;2.47;94.48
9822;BME280;4950;46.042;14.472;2023-01-15T02:10:13;98067.13;;;2.45;94.83
9822;BME280;4950;46.042;14.472;2023-01-15T02:12:41;98068.16;;;2.42;94.80
9822;BME280;4950;46.042;14.472;2023-01-15T02:15:14;98066.44;;;2.43;94.59
9822;BME280;4950;46.042;14.472;2023-01-15T02:17:46;98059.94;;;2.39;94.68
9822;BME280;4950;46.042;14.472;2023-01-15T02:20:22;98060.84;;;2.37;94.90
9822;BME280;4950;46.042;14.472;2023-01-15T02:26:07;98044.31;;;2.30;94.67
9822;BME280;4950;46.042;14.472;2023-01-15T02:28:39;98022.00;;;2.32;94.72
9822;BME280;4950;46.042;14.472;2023-01-15T02:31:09;98034.22;;;2.29;94.65
9822;BME280;4950;46.042;14.472;2023-01-15T02:33:40;98039.66;;;2.24;95.30
9822;BME280;4950;46.042;14.472;2023-01-15T02:36:11;98044.56;;;2.27;95.64
9822;BME280;4950;46.042;14.472;2023-01-15T02:38:44;98035.94;;;2.28;95.32
9822;BME280;4950;46.042;14.472;2023-01-15T02:41:14;98034.78;;;2.32;95.08
9822;BME280;4950;46.042;14.472;2023-01-15T02:43:46;98030.59;;;2.31;94.94
9822;BME280;4950;46.042;14.472;2023-01-15T02:46:15;98026.84;;;2.24;94.67
9822;BME280;4950;46.042;14.472;2023-01-15T02:48:45;98027.22;;;2.20;95.29
9822;BME280;4950;46.042;14.472;2023-01-15T02:51:14;98033.50;;;2.15;95.04
9822;BME280;4950;46.042;14.472;2023-01-15T02:53:45;98032.72;;;2.15;95.57
9822;BME280;4950;46.042;14.472;2023-01-15T02:56:14;98029.44;;;2.13;95.39
9822;BME280;4950;46.042;14.472;2023-01-15T02:58:42;98028.97;;;2.19;95.96
9822;BME280;4950;46.042;14.472;2023-01-15T03:01:16;98023.97;;;2.17;95.34
9822;BME280;4950;46.042;14.472;2023-01-15T03:03:50;98020.94;;;2.12;94.88
9822;BME280;4950;46.042;14.472;2023-01-15T03:06:20;98020.13;;;2.12;95.09
9822;BME280;4950;46.042;14.472;2023-01-15T03:08:50;98022.47;;;2.15;96.14
9822;BME280;4950;46.042;14.472;2023-01-15T03:11:18;98019.53;;;2.08;95.36
9822;BME280;4950;46.042;14.472;2023-01-15T03:13:47;98021.03;;;2.11;95.45
9822;BME280;4950;46.042;14.472;2023-01-15T03:16:21;98011.06;;;2.08;95.25
9822;BME280;4950;46.042;14.472;2023-01-15T03:19:17;98010.25;;;2.07;96.02
9822;BME280;4950;46.042;14.472;2023-01-15T03:21:49;98003.13;;;2.11;95.94
9822;BME280;4950;46.042;14.472;2023-01-15T03:24:22;98000.81;;;2.19;96.02
9822;BME280;4950;46.042;14.472;2023-01-15T03:26:49;98004.06;;;2.21;95.50
9822;BME280;4950;46.042;14.472;2023-01-15T03:29:18;97998.09;;;2.21;95.21
9822;BME280;4950;46.042;14.472;2023-01-15T03:31:47;97991.25;;;2.21;94.43
9822;BME280;4950;46.042;14.472;2023-01-15T03:34:14;97978.47;;;2.21;94.39
9822;BME280;4950;46.042;14.472;2023-01-15T03:36:41;97976.00;;;2.20;94.92
9822;BME280;4950;46.042;14.472;2023-01-15T03:39:08;97975.91;;;2.21;94.73
9822;BME280;4950;46.042;14.472;2023-01-15T03:41:43;97969.63;;;2.14;94.32
9822;BME280;4950;46.042;14.472;2023-01-15T03:44:21;97964.97;;;2.19;94.45
9822;BME280;4950;46.042;14.472;2023-01-15T03:47:01;97948.66;;;2.20;94.61
9822;BME280;4950;46.042;14.472;2023-01-15T03:49:37;97956.31;;;2.20;94.74
9822;BME280;4950;46.042;14.472;2023-01-15T03:52:12;97946.88;;;2.21;94.63
9822;BME280;4950;46.042;14.472;2023-01-15T03:54:45;97943.78;;;2.17;93.83
9822;BME280;4950;46.042;14.472;2023-01-15T03:57:19;97946.09;;;2.20;93.88
9822;BME280;4950;46.042;14.472;2023-01-15T03:59:50;97937.28;;;2.13;94.50
9822;BME280;4950;46.042;14.472;2023-01-15T04:02:20;97935.53;;;2.13;94.00
9822;BME280;4950;46.042;14.472;2023-01-15T04:04:49;97931.66;;;2.19;94.27
9822;BME280;4950;46.042;14.472;2023-01-15T04:07:17;97921.53;;;2.17;93.82
9822;BME280;4950;46.042;14.472;2023-01-15T04:09:44;97931.09;;;2.15;93.64
9822;BME280;4950;46.042;14.472;2023-01-15T04:12:11;97928.03;;;2.22;94.34
9822;BME280;4950;46.042;14.472;2023-01-15T04:14:38;97933.97;;;2.22;94.07
9822;BME280;4950;46.042;14.472;2023-01-15T04:17:05;97934.56;;;2.26;94.04
9822;BME280;4950;46.042;14.472;2023-01-15T04:19:33;97926.88;;;2.26;94.22
9822;BME280;4950;46.042;14.472;2023-01-15T04:21:59;97930.13;;;2.28;93.56
9822;BME280;4950;46.042;14.472;2023-01-15T04:24:26;97925.69;;;2.30;94.07
9822;BME280;4950;46.042;14.472;2023-01-15T04:26:52;97918.47;;;2.35;93.97
9822;BME280;4950;46.042;14.472;2023-01-15T04:29:19;97913.56;;;2.32;93.41
9822;BME280;4950;46.042;14.472;2023-01-15T04:31:46;97927.22;;;2.32;93.65
9822;BME280;4950;46.042;14.472;2023-01-15T04:34:12;97915.09;;;2.34;93.03
9822;BME280;4950;46.042;14.472;2023-01-15T04:36:40;97916.25;;;2.30;93.44
9822;BME280;4950;46.042;14.472;2023-01-15T04:39:10;97907.41;;;2.34;93.18
9822;BME280;4950;46.042;14.472;2023-01-15T04:41:37;97912.28;;;2.37;93.25
9822;BME280;4950;46.042;14.472;2023-01-15T04:44:21;97902.59;;;2.41;92.54
9822;BME280;4950;46.042;14.472;2023-01-15T04:46:53;97901.66;;;2.42;92.85
9822;BME280;4950;46.042;14.472;2023-01-15T04:49:20;97901.53;;;2.44;93.01
9822;BME280;4950;46.042;14.472;2023-01-15T04:51:48;97899.47;;;2.37;92.41
9822;BME280;4950;46.042;14.472;2023-01-15T04:54:15;97894.81;;;2.43;92.12
9822;BME280;4950;46.042;14.472;2023-01-15T04:56:44;97892.13;;;2.44;92.21
9822;BME280;4950;46.042;14.472;2023-01-15T04:59:11;97886.50;;;2.50;92.96
9822;BME280;4950;46.042;14.472;2023-01-15T05:01:38;97886.50;;;2.50;91.92
9822;BME280;4950;46.042;14.472;2023-01-15T05:04:05;97885.00;;;2.48;92.21
9822;BME280;4950;46.042;14.472;2023-01-15T05:06:31;97881.63;;;2.47;92.13
9822;BME280;4950;46.042;14.472;2023-01-15T05:09:00;97881.50;;;2.49;92.57
9822;BME280;4950;46.042;14.472;2023-01-15T05:11:28;97881.25;;;2.52;92.33
9822;BME280;4950;46.042;14.472;2023-01-15T05:13:55;97878.56;;;2.53;92.90
9822;BME280;4950;46.042;14.472;2023-01-15T05:16:23;97868.31;;;2.53;92.19
9822;BME280;4950;46.042;14.472;2023-01-15T05:18:51;97858.06;;;2.53;92.28
9822;BME280;4950;46.042;14.472;2023-01-15T05:21:20;97864.50;;;2.48;92.35
9822;BME280;4950;46.042;14.472;2023-01-15T05:23:48;97859.81;;;2.53;92.49
9822;BME280;4950;46.042;14.472;2023-01-15T05:26:17;97853.78;;;2.54;91.81
9822;BME280;4950;46.042;14.472;2023-01-15T05:28:44;97855.97;;;2.59;92.13
9822;BME280;4950;46.042;14.472;2023-01-15T05:31:12;97854.53;;;2.66;92.69
9822;BME280;4950;46.042;14.472;2023-01-15T05:33:39;97854.78;;;2.63;92.22
9822;BME280;4950;46.042;14.472;2023-01-15T05:36:08;97856.13;;;2.67;92.72
9822;BME280;4950;46.042;14.472;2023-01-15T05:38:35;97856.13;;;2.67;92.38
9822;BME280;4950;46.042;14.472;2023-01-15T05:41:03;97862.06;;;2.67;92.65
9822;BME280;4950;46.042;14.472;2023-01-15T05:43:52;97860.06;;;2.71;92.40
9822;BME280;4950;46.042;14.472;2023-01-15T05:46:19;97849.47;;;2.75;92.37
9822;BME280;4950;46.042;14.472;2023-01-15T05:48:46;97851.47;;;2.72;92.72
9822;BME280;4950;46.042;14.472;2023-01-15T05:51:12;97854.94;;;2.71;92.37
9822;BME280;4950;46.042;14.472;2023-01-15T05:53:39;97839.91;;;2.78;92.60
9822;BME280;4950;46.042;14.472;2023-01-15T05:56:06;97844.47;;;2.74;92.77
9822;BME280;4950;46.042;14.472;2023-01-15T05:58:33;97843.50;;;2.75;93.20
9822;BME280;4950;46.042;14.472;2023-01-15T06:01:05;97840.59;;;2.80;92.76
9822;BME280;4950;46.042;14.472;2023-01-15T06:03:32;97840.31;;;2.83;93.04
9822;BME280;4950;46.042;14.472;2023-01-15T06:05:58;97840.19;;;2.84;92.70
9822;BME280;4950;46.042;14.472;2023-01-15T06:08:25;97833.31;;;2.85;92.92
9822;BME280;4950;46.042;14.472;2023-01-15T06:10:51;97836.56;;;2.87;93.11
9822;BME280;4950;46.042;14.472;2023-01-15T06:13:18;97818.63;;;2.87;93.28
9822;BME280;4950;46.042;14.472;2023-01-15T06:15:44;97826.19;;;2.88;92.75
9822;BME280;4950;46.042;14.472;2023-01-15T06:18:12;97817.41;;;2.91;93.49
9822;BME280;4950;46.042;14.472;2023-01-15T06:20:41;97820.53;;;2.94;92.93
9822;BME280;4950;46.042;14.472;2023-01-15T06:23:08;97820.31;;;2.97;93.28
9822;BME280;4950;46.042;14.472;2023-01-15T06:25:35;97814.91;;;3.01;93.14
9822;BME280;4950;46.042;14.472;2023-01-15T06:28:02;97811.41;;;3.02;93.32
9822;BME280;4950;46.042;14.472;2023-01-15T06:30:29;97811.28;;;3.03;93.51
9822;BME280;4950;46.042;14.472;2023-01-15T06:32:56;97811.84;;;3.07;93.64
9822;BME280;4950;46.042;14.472;2023-01-15T06:35:24;97804.97;;;3.07;93.77
9822;BME280;4950;46.042;14.472;2023-01-15T06:37:51;97817.50;;;3.10;93.21
9822;BME280;4950;46.042;14.472;2023-01-15T06:40:17;97805.66;;;3.09;93.96
9822;BME280;4950;46.042;14.472;2023-01-15T06:42:44;97798.63;;;3.11;93.79
9822;BME280;4950;46.042;14.472;2023-01-15T06:45:35;97803.53;;;3.14;93.70
9822;BME280;4950;46.042;14.472;2023-01-15T06:48:20;97786.09;;;3.18;93.53
9822;BME280;4950;46.042;14.472;2023-01-15T06:50:48;97788.53;;;3.20;93.30
9822;BME280;4950;46.042;14.472;2023-01-15T06:53:14;97797.34;;;3.27;93.31
9822;BME280;4950;46.042;14.472;2023-01-15T06:55:41;97799.63;;;3.30;93.58
9822;BME280;4950;46.042;14.472;2023-01-15T06:58:07;97810.56;;;3.32;93.54
9822;BME280;4950;46.042;14.472;2023-01-15T07:00:34;97808.16;;;3.30;93.13
9822;BME280;4950;46.042;14.472;2023-01-15T07:03:02;97811.78;;;3.28;93.20
9822;BME280;4950;46.042;14.472;2023-01-15T07:05:29;97803.16;;;3.29;93.52
9822;BME280;4950;46.042;14.472;2023-01-15T07:07:57;97798.81;;;3.29;93.30
9822;BME280;4950;46.042;14.472;2023-01-15T07:10:24;97796.03;;;3.32;93.84
9822;BME280;4950;46.042;14.472;2023-01-15T07:12:51;97800.88;;;3.35;93.16
9822;BME280;4950;46.042;14.472;2023-01-15T07:15:17;97788.72;;;3.38;93.68
9822;BME280;4950;46.042;14.472;2023-01-15T07:17:44;97787.66;;;3.40;93.11
9822;BME280;4950;46.042;14.472;2023-01-15T07:20:11;97791.72;;;3.43;93.78
9822;BME280;4950;46.042;14.472;2023-01-15T07:22:38;97780.38;;;3.45;93.55
9822;BME280;4950;46.042;14.472;2023-01-15T07:25:08;97792.16;;;3.48;93.32
9822;BME280;4950;46.042;14.472;2023-01-15T07:27:34;97786.34;;;3.46;93.27
9822;BME280;4950;46.042;14.472;2023-01-15T07:30:01;97788.50;;;3.50;93.30
9822;BME280;4950;46.042;14.472;2023-01-15T07:32:28;97783.91;;;3.54;93.46
9822;BME280;4950;46.042;14.472;2023-01-15T07:34:54;97790.66;;;3.55;93.16
9822;BME280;4950;46.042;14.472;2023-01-15T07:37:21;97784.59;;;3.56;93.34
9822;BME280;4950;46.042;14.472;2023-01-15T07:39:47;97787.97;;;3.56;93.37
9822;BME280;4950;46.042;14.472;2023-01-15T07:42:15;97785.94;;;3.60;93.81
9822;BME280;4950;46.042;14.472;2023-01-15T07:44:59;97789.88;;;3.64;93.65
9822;BME280;4950;46.042;14.472;2023-01-15T07:47:43;97784.50;;;3.67;93.80
9822;BME280;4950;46.042;14.472;2023-01-15T07:50:27;97786.09;;;3.68;93.71
9822;BME280;4950;46.042;14.472;2023-01-15T07:52:54;97790.13;;;3.71;94.06
9822;BME280;4950;46.042;14.472;2023-01-15T07:55:21;97790.69;;;3.74;93.46
9822;BME280;4950;46.042;14.472;2023-01-15T07:57:49;97782.06;;;3.75;93.82
9822;BME280;4950;46.042;14.472;2023-01-15T08:00:20;97785.44;;;3.76;93.81
9822;BME280;4950;46.042;14.472;2023-01-15T08:02:47;97787.19;;;3.75;94.00
9822;BME280;4950;46.042;14.472;2023-01-15T08:05:15;97787.59;;;3.81;94.47
9822;BME280;4950;46.042;14.472;2023-01-15T08:07:43;97786.41;;;3.85;93.89
9822;BME280;4950;46.042;14.472;2023-01-15T08:10:12;97785.56;;;3.84;93.96
9822;BME280;4950;46.042;14.472;2023-01-15T08:12:39;97771.81;;;3.85;94.24
9822;BME280;4950;46.042;14.472;2023-01-15T08:15:25;97773.28;;;3.88;94.39
9822;BME280;4950;46.042;14.472;2023-01-15T08:17:52;97767.88;;;3.91;94.58
9822;BME280;4950;46.042;14.472;2023-01-15T08:20:20;97764.78;;;3.97;95.11
9822;BME280;4950;46.042;14.472;2023-01-15T08:22:47;97754.09;;;4.02;94.97
9822;BME280;4950;46.042;14.472;2023-01-15T08:25:15;97763.69;;;4.09;94.89
9822;BME280;4950;46.042;14.472;2023-01-15T08:27:42;97755.03;;;4.10;94.60
9822;BME280;4950;46.042;14.472;2023-01-15T08:30:11;97750.72;;;4.11;94.77
9822;BME280;4950;46.042;14.472;2023-01-15T08:32:40;97746.25;;;4.13;94.96
9822;BME280;4950;46.042;14.472;2023-01-15T08:35:07;97751.38;;;4.13;94.76
9822;BME280;4950;46.042;14.472;2023-01-15T08:37:34;97744.22;;;4.17;94.78
9822;BME280;4950;46.042;14.472;2023-01-15T08:40:01;97742.59;;;4.15;94.65
9822;BME280;4950;46.042;14.472;2023-01-15T08:42:28;97743.41;;;4.16;94.91
9822;BME280;4950;46.042;14.472;2023-01-15T08:44:55;97738.94;;;4.18;94.81
9822;BME280;4950;46.042;14.472;2023-01-15T08:47:21;97742.19;;;4.20;95.05
9822;BME280;4950;46.042;14.472;2023-01-15T08:49:49;97740.56;;;4.19;94.75
9822;BME280;4950;46.042;14.472;2023-01-15T08:52:16;97747.84;;;4.24;95.16
9822;BME280;4950;46.042;14.472;2023-01-15T08:54:43;97736.22;;;4.29;95.16
9822;BME280;4950;46.042;14.472;2023-01-15T08:57:09;97741.09;;;4.32;95.18
9822;BME280;4950;46.042;14.472;2023-01-15T08:59:38;97731.47;;;4.34;95.09
9822;BME280;4950;46.042;14.472;2023-01-15T09:02:09;97727.41;;;4.42;94.85
9822;BME280;4950;46.042;14.472;2023-01-15T09:04:36;97727.41;;;4.42;95.03
9822;BME280;4950;46.042;14.472;2023-01-15T09:07:05;97728.09;;;4.44;95.33
9822;BME280;4950;46.042;14.472;2023-01-15T09:09:32;97727.13;;;4.45;95.27
9822;BME280;4950;46.042;14.472;2023-01-15T09:11:59;97724.00;;;4.51;95.46
9822;BME280;4950;46.042;14.472;2023-01-15T09:14:25;97719.50;;;4.53;95.61
9822;BME280;4950;46.042;14.472;2023-01-15T09:16:52;97729.25;;;4.59;96.03
9822;BME280;4950;46.042;14.472;2023-01-15T09:19:19;97727.06;;;4.64;96.43
9822;BME280;4950;46.042;14.472;2023-01-15T09:21:45;97731.63;;;4.70;96.56
9822;BME280;4950;46.042;14.472;2023-01-15T09:24:13;97718.25;;;4.77;96.63
9822;BME280;4950;46.042;14.472;2023-01-15T09:26:40;97716.34;;;4.79;96.36
9822;BME280;4950;46.042;14.472;2023-01-15T09:29:06;97713.47;;;4.82;96.81
9822;BME280;4950;46.042;14.472;2023-01-15T09:31:34;97718.34;;;4.85;96.71
9822;BME280;4950;46.042;14.472;2023-01-15T09:34:00;97708.72;;;4.87;96.72
9822;BME280;4950;46.042;14.472;2023-01-15T09:36:28;97700.56;;;4.91;96.67
9822;BME280;4950;46.042;14.472;2023-01-15T09:38:57;97694.19;;;4.95;96.59
9822;BME280;4950;46.042;14.472;2023-01-15T09:41:32;97697.16;;;5.01;96.64
9822;BME280;4950;46.042;14.472;2023-01-15T09:44:31;97692.22;;;5.07;96.94
9822;BME280;4950;46.042;14.472;2023-01-15T09:47:08;97684.22;;;5.10;97.07
9822;BME280;4950;46.042;14.472;2023-01-15T09:49:55;97678.66;;;5.15;97.19
9822;BME280;4950;46.042;14.472;2023-01-15T09:52:33;97681.59;;;5.20;97.03
9822;BME280;4950;46.042;14.472;2023-01-15T09:55:06;97682.78;;;5.26;97.03
9822;BME280;4950;46.042;14.472;2023-01-15T09:57:36;97680.75;;;5.29;97.18
9822;BME280;4950;46.042;14.472;2023-01-15T10:00:05;97673.38;;;5.34;96.73
9822;BME280;4950;46.042;14.472;2023-01-15T10:02:36;97670.38;;;5.39;97.18
9822;BME280;4950;46.042;14.472;2023-01-15T10:05:09;97662.34;;;5.42;96.92
9822;BME280;4950;46.042;14.472;2023-01-15T10:07:40;97649.19;;;5.45;97.07
9822;BME280;4950;46.042;14.472;2023-01-15T10:10:11;97644.56;;;5.49;97.11
9822;BME280;4950;46.042;14.472;2023-01-15T10:12:42;97643.16;;;5.54;97.15
9822;BME280;4950;46.042;14.472;2023-01-15T10:15:16;97647.72;;;5.61;97.24
9822;BME280;4950;46.042;14.472;2023-01-15T10:17:46;97639.09;;;5.70;97.24
9822;BME280;4950;46.042;14.472;2023-01-15T10:20:15;97630.63;;;5.78;97.63
9822;BME280;4950;46.042;14.472;2023-01-15T10:23:05;97631.78;;;5.83;97.33
9822;BME280;4950;46.042;14.472;2023-01-15T10:25:43;97617.34;;;5.90;98.04
9822;BME280;4950;46.042;14.472;2023-01-15T10:28:18;97620.00;;;5.99;98.00
9822;BME280;4950;46.042;14.472;2023-01-15T10:30:47;97609.91;;;6.05;98.44
9822;BME280;4950;46.042;14.472;2023-01-15T10:33:40;97607.38;;;6.13;98.24
9822;BME280;4950;46.042;14.472;2023-01-15T10:36:14;97597.25;;;6.20;98.60
9822;BME280;4950;46.042;14.472;2023-01-15T10:38:48;97590.41;;;6.29;98.33
9822;BME280;4950;46.042;14.472;2023-01-15T10:41:29;97576.88;;;6.35;98.26
9822;BME280;4950;46.042;14.472;2023-01-15T10:44:06;97579.63;;;6.42;98.58
9822;BME280;4950;46.042;14.472;2023-01-15T10:46:37;97576.59;;;6.46;98.73
9822;BME280;4950;46.042;14.472;2023-01-15T10:49:11;97574.34;;;6.51;98.31
9822;BME280;4950;46.042;14.472;2023-01-15T10:51:41;97562.75;;;6.56;98.63
9822;BME280;4950;46.042;14.472;2023-01-15T10:54:15;97567.47;;;6.60;98.43
9822;BME280;4950;46.042;14.472;2023-01-15T10:56:50;97562.00;;;6.63;98.94
9822;BME280;4950;46.042;14.472;2023-01-15T10:59:30;97568.44;;;6.67;98.80
9822;BME280;4950;46.042;14.472;2023-01-15T11:01:59;97564.44;;;6.73;98.76
9822;BME280;4950;46.042;14.472;2023-01-15T11:04:30;97559.91;;;6.75;98.22
9822;BME280;4950;46.042;14.472;2023-01-15T11:06:57;97560.41;;;6.79;98.70
9822;BME280;4950;46.042;14.472;2023-01-15T11:09:25;97555.75;;;6.82;98.73
9822;BME280;4950;46.042;14.472;2023-01-15T11:12:04;97554.63;;;6.85;98.40
9822;BME280;4950;46.042;14.472;2023-01-15T11:14:50;97549.97;;;6.88;98.76
9822;BME280;4950;46.042;14.472;2023-01-15T11:17:36;97534.31;;;6.90;97.91
9822;BME280;4950;46.042;14.472;2023-01-15T11:20:26;97537.69;;;6.90;97.95
9822;BME280;4950;46.042;14.472;2023-01-15T11:22:55;97525.78;;;6.89;97.70
9822;BME280;4950;46.042;14.472;2023-01-15T11:25:30;97523.03;;;6.91;97.14
9822;BME280;4950;46.042;14.472;2023-01-15T11:27:59;97524.50;;;6.94;97.10
9822;BME280;4950;46.042;14.472;2023-01-15T11:30:32;97525.63;;;6.99;97.45
9822;BME280;4950;46.042;14.472;2023-01-15T11:33:00;97518.69;;;7.00;97.07
9822;BME280;4950;46.042;14.472;2023-01-15T11:35:28;97516.59;;;7.03;96.53
9822;BME280;4950;46.042;14.472;2023-01-15T11:38:04;97508.84;;;7.03;96.34
9822;BME280;4950;46.042;14.472;2023-01-15T11:40:32;97500.94;;;7.05;95.80
9822;BME280;4950;46.042;14.472;2023-01-15T11:42:59;97491.25;;;7.07;96.14
9822;BME280;4950;46.042;14.472;2023-01-15T11:45:48;97494.97;;;7.12;95.75
9822;BME280;4950;46.042;14.472;2023-01-15T11:48:41;97479.97;;;7.16;95.33
9822;BME280;4950;46.042;14.472;2023-01-15T11:51:26;97478.84;;;7.19;95.29
9822;BME280;4950;46.042;14.472;2023-01-15T11:53:57;97475.13;;;7.21;95.50
9822;BME280;4950;46.042;14.472;2023-01-15T11:56:26;97477.56;;;7.23;95.11
9822;BME280;4950;46.042;14.472;2023-01-15T11:58:57;97471.25;;;7.25;95.02
9822;BME280;4950;46.042;14.472;2023-01-15T12:01:28;97467.38;;;7.29;94.98
9822;BME280;4950;46.042;14.472;2023-01-15T12:03:56;97455.25;;;7.30;94.48
9822;BME280;4950;46.042;14.472;2023-01-15T12:06:25;97447.34;;;7.40;94.65
9822;BME280;4950;46.042;14.472;2023-01-15T12:08:58;97450.56;;;7.42;94.24
9822;BME280;4950;46.042;14.472;2023-01-15T12:11:42;97449.09;;;7.47;93.85
9822;BME280;4950;46.042;14.472;2023-01-15T12:14:30;97448.78;;;7.50;93.79
9822;BME280;4950;46.042;14.472;2023-01-15T12:17:14;97440.53;;;7.55;94.25
9822;BME280;4950;46.042;14.472;2023-01-15T12:19:52;97439.41;;;7.58;93.75
9822;BME280;4950;46.042;14.472;2023-01-15T12:22:33;97437.13;;;7.63;93.58
9822;BME280;4950;46.042;14.472;2023-01-15T12:25:22;97432.59;;;7.65;93.74
9822;BME280;4950;46.042;14.472;2023-01-15T12:27:57;97428.38;;;7.72;92.44
9822;BME280;4950;46.042;14.472;2023-01-15T12:30:32;97426.72;;;7.87;90.02
9822;BME280;4950;46.042;14.472;2023-01-15T12:33:13;97426.97;;;8.01;88.50
9822;BME280;4950;46.042;14.472;2023-01-15T12:35:49;97425.25;;;8.16;87.79
9822;BME280;4950;46.042;14.472;2023-01-15T12:38:26;97416.63;;;8.32;86.32
9822;BME280;4950;46.042;14.472;2023-01-15T12:40:59;97406.53;;;8.45;86.07
9822;BME280;4950;46.042;14.472;2023-01-15T12:43:28;97403.66;;;8.63;83.45
9822;BME280;4950;46.042;14.472;2023-01-15T12:46:14;97405.31;;;8.79;82.18
9822;BME280;4950;46.042;14.472;2023-01-15T12:48:47;97400.34;;;8.93;80.94
9822;BME280;4950;46.042;14.472;2023-01-15T12:51:21;97396.53;;;9.03;79.92
9822;BME280;4950;46.042;14.472;2023-01-15T12:53:54;97400.81;;;9.11;79.36
9822;BME280;4950;46.042;14.472;2023-01-15T12:56:27;97399.50;;;9.15;78.72
9822;BME280;4950;46.042;14.472;2023-01-15T12:59:00;97403.88;;;9.15;78.91
9822;BME280;4950;46.042;14.472;2023-01-15T13:01:35;97390.22;;;9.21;78.53
9822;BME280;4950;46.042;14.472;2023-01-15T13:04:12;97387.00;;;9.19;79.04
9822;BME280;4950;46.042;14.472;2023-01-15T13:06:44;97394.94;;;9.17;79.22
9822;BME280;4950;46.042;14.472;2023-01-15T13:09:19;97392.81;;;9.21;79.56
9822;BME280;4950;46.042;14.472;2023-01-15T13:11:48;97394.44;;;9.22;79.54
9822;BME280;4950;46.042;14.472;2023-01-15T13:14:23;97386.44;;;9.23;79.03
9822;BME280;4950;46.042;14.472;2023-01-15T13:16:54;97386.91;;;9.27;78.03
9822;BME280;4950;46.042;14.472;2023-01-15T13:19:33;97383.81;;;9.32;77.18
9822;BME280;4950;46.042;14.472;2023-01-15T13:22:05;97385.22;;;9.34;78.19
9822;BME280;4950;46.042;14.472;2023-01-15T13:24:50;97376.91;;;9.39;78.43
9822;BME280;4950;46.042;14.472;2023-01-15T13:27:26;97374.59;;;9.44;78.24
9822;BME280;4950;46.042;14.472;2023-01-15T13:32:48;97368.88;;;9.48;78.29
9822;BME280;4950;46.042;14.472;2023-01-15T13:35:24;97365.75;;;9.53;78.15
9822;BME280;4950;46.042;14.472;2023-01-15T13:37:53;97360.03;;;9.58;76.80
9822;BME280;4950;46.042;14.472;2023-01-15T13:40:26;97366.44;;;9.62;77.56
9822;BME280;4950;46.042;14.472;2023-01-15T13:42:53;97360.91;;;9.65;76.74
9822;BME280;4950;46.042;14.472;2023-01-15T13:45:39;97355.34;;;9.68;77.12
9822;BME280;4950;46.042;14.472;2023-01-15T13:48:12;97350.78;;;9.70;76.91